sensor_id;sensor_type;location;lat;lon;timestamp;P1;durP1;ratioP1;P2;durP2;ratioP2
15082;SDS011;7640;53.116;6.878;2023-02-15T00:00:22;160.50;;;73.80;;
15082;SDS011;7640;53.116;6.878;2023-02-15T00:02:51;176.87;;;79.17;;
15082;SDS011;7640;53.116;6.878;2023-02-15T00:05:22;172.73;;;75.70;;
15082;SDS011;7640;53.116;6.878;2023-02-15T00:07:50;171.20;;;73.97;;
15082;SDS011;7640;53.116;6.878;2023-02-15T00:10:18;146.87;;;67.13;;
15082;SDS011;7640;53.116;6.878;2023-02-15T00:12:47;151.03;;;72.03;;
15082;SDS011;7640;53.116;6.878;2023-02-15T00:15:15;160.93;;;74.20;;
15082;SDS011;7640;53.116;6.878;2023-02-15T00:17:44;150.93;;;73.23;;
15082;SDS011;7640;53.116;6.878;2023-02-15T00:20:12;143.70;;;65.93;;
15082;SDS011;7640;53.116;6.878;2023-02-15T00:22:42;156.67;;;68.57;;
15082;SDS011;7640;53.116;6.878;2023-02-15T00:25:11;151.00;;;69.67;;
15082;SDS011;7640;53.116;6.878;2023-02-15T00:27:39;148.27;;;70.03;;
15082;SDS011;7640;53.116;6.878;2023-02-15T00:30:08;160.97;;;73.63;;
15082;SDS011;7640;53.116;6.878;2023-02-15T00:32:38;153.50;;;67.90;;
15082;SDS011;7640;53.116;6.878;2023-02-15T00:35:06;149.27;;;70.33;;
15082;SDS011;7640;53.116;6.878;2023-02-15T00:37:35;143.47;;;71.53;;
15082;SDS011;7640;53.116;6.878;2023-02-15T00:40:06;155.00;;;72.70;;
15082;SDS011;7640;53.116;6.878;2023-02-15T00:42:36;161.07;;;73.10;;
15082;SDS011;7640;53.116;6.878;2023-02-15T00:45:04;163.03;;;71.60;;
15082;SDS011;7640;53.116;6.878;2023-02-15T00:47:34;153.87;;;69.37;;
15082;SDS011;7640;53.116;6.878;2023-02-15T00:50:02;153.67;;;72.50;;
15082;SDS011;7640;53.116;6.878;2023-02-15T00:52:33;158.13;;;71.93;;
15082;SDS011;7640;53.116;6.878;2023-02-15T00:55:01;152.30;;;70.43;;
15082;SDS011;7640;53.116;6.878;2023-02-15T00:57:32;147.87;;;69.17;;
15082;SDS011;7640;53.116;6.878;2023-02-15T01:00:00;147.90;;;67.03;;
15082;SDS011;7640;53.116;6.878;2023-02-15T01:02:28;160.10;;;72.53;;
15082;SDS011;7640;53.116;6.878;2023-02-15T01:04:57;151.73;;;70.37;;
15082;SDS011;7640;53.116;6.878;2023-02-15T01:07:25;147.07;;;69.70;;
15082;SDS011;7640;53.116;6.878;2023-02-15T01:09:54;146.77;;;67.47;;
15082;SDS011;7640;53.116;6.878;2023-02-15T01:12:23;153.60;;;71.60;;
15082;SDS011;7640;53.116;6.878;2023-02-15T01:14:52;155.20;;;72.60;;
15082;SDS011;7640;53.116;6.878;2023-02-15T01:17:21;153.53;;;70.57;;
15082;SDS011;7640;53.116;6.878;2023-02-15T01:19:49;153.37;;;69.97;;
15082;SDS011;7640;53.116;6.878;2023-02-15T01:22:18;144.37;;;67.33;;
15082;SDS011;7640;53.116;6.878;2023-02-15T01:24:48;153.17;;;68.97;;
15082;SDS011;7640;53.116;6.878;2023-02-15T01:27:17;128.13;;;60.80;;
15082;SDS011;7640;53.116;6.878;2023-02-15T01:29:46;140.67;;;65.53;;
15082;SDS011;7640;53.116;6.878;2023-02-15T01:32:16;142.57;;;67.53;;
15082;SDS011;7640;53.116;6.878;2023-02-15T01:34:44;173.00;;;68.80;;
15082;SDS011;7640;53.116;6.878;2023-02-15T01:37:13;145.50;;;64.67;;
15082;SDS011;7640;53.116;6.878;2023-02-15T01:39:41;141.10;;;64.90;;
15082;SDS011;7640;53.116;6.878;2023-02-15T01:42:10;144.40;;;62.23;;
15082;SDS011;7640;53.116;6.878;2023-02-15T01:44:49;142.33;;;63.67;;
15082;SDS011;7640;53.116;6.878;2023-02-15T01:47:22;144.23;;;64.20;;
15082;SDS011;7640;53.116;6.878;2023-02-15T01:49:58;140.47;;;60.67;;
15082;SDS011;7640;53.116;6.878;2023-02-15T01:52:34;135.27;;;62.40;;
15082;SDS011;7640;53.116;6.878;2023-02-15T01:55:05;131.13;;;61.20;;
15082;SDS011;7640;53.116;6.878;2023-02-15T01:57:35;132.37;;;61.73;;
15082;SDS011;7640;53.116;6.878;2023-02-15T02:00:04;137.50;;;65.80;;
15082;SDS011;7640;53.116;6.878;2023-02-15T02:02:37;134.53;;;62.73;;
15082;SDS011;7640;53.116;6.878;2023-02-15T02:05:07;155.23;;;67.67;;
15082;SDS011;7640;53.116;6.878;2023-02-15T02:07:36;199.50;;;70.43;;
15082;SDS011;7640;53.116;6.878;2023-02-15T02:10:11;191.13;;;69.93;;
15082;SDS011;7640;53.116;6.878;2023-02-15T02:12:43;156.80;;;63.80;;
15082;SDS011;7640;53.116;6.878;2023-02-15T02:15:14;154.33;;;68.03;;
15082;SDS011;7640;53.116;6.878;2023-02-15T02:17:49;176.77;;;74.90;;
15082;SDS011;7640;53.116;6.878;2023-02-15T02:20:43;157.00;;;71.03;;
15082;SDS011;7640;53.116;6.878;2023-02-15T02:27:11;237.57;;;75.00;;
15082;SDS011;7640;53.116;6.878;2023-02-15T02:36:04;147.40;;;66.23;;
15082;SDS011;7640;53.116;6.878;2023-02-15T02:38:46;125.60;;;60.33;;
15082;SDS011;7640;53.116;6.878;2023-02-15T02:41:30;132.60;;;61.30;;
15082;SDS011;7640;53.116;6.878;2023-02-15T02:44:06;130.03;;;63.30;;
15082;SDS011;7640;53.116;6.878;2023-02-15T02:46:44;141.87;;;64.63;;
15082;SDS011;7640;53.116;6.878;2023-02-15T02:49:28;134.90;;;66.10;;
15082;SDS011;7640;53.116;6.878;2023-02-15T02:51:59;133.30;;;62.37;;
15082;SDS011;7640;53.116;6.878;2023-02-15T02:54:29;149.43;;;67.47;;
15082;SDS011;7640;53.116;6.878;2023-02-15T02:56:58;133.43;;;63.73;;
15082;SDS011;7640;53.116;6.878;2023-02-15T02:59:30;148.83;;;69.77;;
15082;SDS011;7640;53.116;6.878;2023-02-15T03:02:05;125.40;;;60.93;;
15082;SDS011;7640;53.116;6.878;2023-02-15T03:04:42;128.90;;;57.27;;
15082;SDS011;7640;53.116;6.878;2023-02-15T03:07:15;126.57;;;60.50;;
15082;SDS011;7640;53.116;6.878;2023-02-15T03:09:49;132.73;;;65.20;;
15082;SDS011;7640;53.116;6.878;2023-02-15T03:12:21;134.70;;;64.90;;
15082;SDS011;7640;53.116;6.878;2023-02-15T03:14:53;128.93;;;63.93;;
15082;SDS011;7640;53.116;6.878;2023-02-15T03:17:25;136.00;;;63.83;;
15082;SDS011;7640;53.116;6.878;2023-02-15T03:20:01;120.00;;;60.73;;
15082;SDS011;7640;53.116;6.878;2023-02-15T03:22:34;125.07;;;62.90;;
15082;SDS011;7640;53.116;6.878;2023-02-15T03:25:06;131.13;;;63.73;;
15082;SDS011;7640;53.116;6.878;2023-02-15T03:27:40;132.00;;;63.83;;
15082;SDS011;7640;53.116;6.878;2023-02-15T03:30:12;135.90;;;63.60;;
15082;SDS011;7640;53.116;6.878;2023-02-15T03:32:45;117.80;;;59.97;;
15082;SDS011;7640;53.116;6.878;2023-02-15T03:35:16;128.23;;;63.87;;
15082;SDS011;7640;53.116;6.878;2023-02-15T03:37:50;128.77;;;61.83;;
15082;SDS011;7640;53.116;6.878;2023-02-15T03:40:23;129.70;;;63.90;;
15082;SDS011;7640;53.116;6.878;2023-02-15T03:43:16;124.77;;;60.70;;
15082;SDS011;7640;53.116;6.878;2023-02-15T03:45:51;118.87;;;57.83;;
15082;SDS011;7640;53.116;6.878;2023-02-15T03:48:25;135.03;;;62.63;;
15082;SDS011;7640;53.116;6.878;2023-02-15T03:51:00;127.07;;;62.17;;
15082;SDS011;7640;53.116;6.878;2023-02-15T03:53:49;131.47;;;62.60;;
15082;SDS011;7640;53.116;6.878;2023-02-15T03:56:19;149.33;;;66.93;;
15082;SDS011;7640;53.116;6.878;2023-02-15T03:58:48;157.30;;;69.57;;
15082;SDS011;7640;53.116;6.878;2023-02-15T04:01:34;147.53;;;69.83;;
15082;SDS011;7640;53.116;6.878;2023-02-15T04:04:37;149.27;;;66.50;;
15082;SDS011;7640;53.116;6.878;2023-02-15T04:07:09;147.37;;;68.17;;
15082;SDS011;7640;53.116;6.878;2023-02-15T04:09:38;151.73;;;69.37;;
15082;SDS011;7640;53.116;6.878;2023-02-15T04:12:24;166.10;;;71.73;;
15082;SDS011;7640;53.116;6.878;2023-02-15T04:14:53;196.93;;;73.97;;
15082;SDS011;7640;53.116;6.878;2023-02-15T04:17:38;206.70;;;74.07;;
15082;SDS011;7640;53.116;6.878;2023-02-15T04:20:09;302.47;;;77.83;;
15082;SDS011;7640;53.116;6.878;2023-02-15T04:22:55;277.20;;;80.60;;
15082;SDS011;7640;53.116;6.878;2023-02-15T04:25:41;425.63;;;92.53;;
15082;SDS011;7640;53.116;6.878;2023-02-15T04:28:09;296.80;;;77.57;;
15082;SDS011;7640;53.116;6.878;2023-02-15T04:30:38;321.17;;;84.13;;
15082;SDS011;7640;53.116;6.878;2023-02-15T04:33:06;323.03;;;83.37;;
15082;SDS011;7640;53.116;6.878;2023-02-15T04:35:36;304.87;;;85.07;;
15082;SDS011;7640;53.116;6.878;2023-02-15T04:38:05;351.97;;;88.40;;
15082;SDS011;7640;53.116;6.878;2023-02-15T04:40:34;397.60;;;93.60;;
15082;SDS011;7640;53.116;6.878;2023-02-15T04:43:02;326.17;;;89.43;;
15082;SDS011;7640;53.116;6.878;2023-02-15T04:45:31;379.87;;;88.60;;
15082;SDS011;7640;53.116;6.878;2023-02-15T04:48:00;409.57;;;95.97;;
15082;SDS011;7640;53.116;6.878;2023-02-15T04:50:28;353.83;;;86.13;;
15082;SDS011;7640;53.116;6.878;2023-02-15T04:52:58;349.97;;;90.63;;
15082;SDS011;7640;53.116;6.878;2023-02-15T04:55:27;306.70;;;85.27;;
15082;SDS011;7640;53.116;6.878;2023-02-15T04:57:55;300.10;;;82.83;;
15082;SDS011;7640;53.116;6.878;2023-02-15T05:00:24;358.57;;;89.87;;
15082;SDS011;7640;53.116;6.878;2023-02-15T05:02:53;380.07;;;95.27;;
15082;SDS011;7640;53.116;6.878;2023-02-15T05:05:22;274.70;;;86.27;;
15082;SDS011;7640;53.116;6.878;2023-02-15T05:07:50;347.87;;;89.07;;
15082;SDS011;7640;53.116;6.878;2023-02-15T05:10:20;422.00;;;99.93;;
15082;SDS011;7640;53.116;6.878;2023-02-15T05:12:49;305.80;;;84.07;;
15082;SDS011;7640;53.116;6.878;2023-02-15T05:15:18;302.47;;;85.17;;
15082;SDS011;7640;53.116;6.878;2023-02-15T05:17:46;384.60;;;98.93;;
15082;SDS011;7640;53.116;6.878;2023-02-15T05:20:15;578.37;;;120.67;;
15082;SDS011;7640;53.116;6.878;2023-02-15T05:22:44;363.17;;;92.43;;
15082;SDS011;7640;53.116;6.878;2023-02-15T05:25:13;307.27;;;81.77;;
15082;SDS011;7640;53.116;6.878;2023-02-15T05:28:01;269.63;;;85.07;;
15082;SDS011;7640;53.116;6.878;2023-02-15T05:30:48;326.43;;;84.80;;
15082;SDS011;7640;53.116;6.878;2023-02-15T05:33:18;261.83;;;81.63;;
15082;SDS011;7640;53.116;6.878;2023-02-15T05:35:47;474.43;;;110.37;;
15082;SDS011;7640;53.116;6.878;2023-02-15T05:38:16;250.47;;;83.23;;
15082;SDS011;7640;53.116;6.878;2023-02-15T05:40:44;301.70;;;88.57;;
15082;SDS011;7640;53.116;6.878;2023-02-15T05:43:18;360.97;;;96.40;;
15082;SDS011;7640;53.116;6.878;2023-02-15T05:45:52;344.90;;;93.17;;
15082;SDS011;7640;53.116;6.878;2023-02-15T05:48:22;344.60;;;97.50;;
15082;SDS011;7640;53.116;6.878;2023-02-15T05:50:59;272.90;;;85.10;;
15082;SDS011;7640;53.116;6.878;2023-02-15T05:53:30;261.03;;;88.37;;
15082;SDS011;7640;53.116;6.878;2023-02-15T05:56:03;272.03;;;89.20;;
15082;SDS011;7640;53.116;6.878;2023-02-15T05:58:38;254.50;;;92.47;;
15082;SDS011;7640;53.116;6.878;2023-02-15T06:01:08;233.97;;;85.63;;
15082;SDS011;7640;53.116;6.878;2023-02-15T06:03:37;254.87;;;88.93;;
15082;SDS011;7640;53.116;6.878;2023-02-15T06:06:06;249.53;;;95.63;;
15082;SDS011;7640;53.116;6.878;2023-02-15T06:08:35;231.43;;;92.27;;
15082;SDS011;7640;53.116;6.878;2023-02-15T06:11:05;238.80;;;90.23;;
15082;SDS011;7640;53.116;6.878;2023-02-15T06:13:34;215.57;;;87.73;;
15082;SDS011;7640;53.116;6.878;2023-02-15T06:16:04;218.23;;;90.30;;
15082;SDS011;7640;53.116;6.878;2023-02-15T06:18:33;215.73;;;85.07;;
15082;SDS011;7640;53.116;6.878;2023-02-15T06:21:02;229.33;;;90.43;;
15082;SDS011;7640;53.116;6.878;2023-02-15T06:23:30;206.97;;;85.70;;
15082;SDS011;7640;53.116;6.878;2023-02-15T06:25:59;196.20;;;83.93;;
15082;SDS011;7640;53.116;6.878;2023-02-15T06:28:28;205.50;;;85.77;;
15082;SDS011;7640;53.116;6.878;2023-02-15T06:30:57;180.43;;;79.83;;
15082;SDS011;7640;53.116;6.878;2023-02-15T06:33:26;196.77;;;82.97;;
15082;SDS011;7640;53.116;6.878;2023-02-15T06:35:56;189.53;;;83.20;;
15082;SDS011;7640;53.116;6.878;2023-02-15T06:38:25;185.60;;;79.80;;
15082;SDS011;7640;53.116;6.878;2023-02-15T06:40:54;196.13;;;79.13;;
15082;SDS011;7640;53.116;6.878;2023-02-15T06:43:22;196.43;;;84.07;;
15082;SDS011;7640;53.116;6.878;2023-02-15T06:45:51;185.37;;;79.97;;
15082;SDS011;7640;53.116;6.878;2023-02-15T06:48:21;197.23;;;80.90;;
15082;SDS011;7640;53.116;6.878;2023-02-15T06:50:49;204.37;;;83.67;;
15082;SDS011;7640;53.116;6.878;2023-02-15T06:53:17;207.73;;;89.17;;
15082;SDS011;7640;53.116;6.878;2023-02-15T06:55:46;197.63;;;84.47;;
15082;SDS011;7640;53.116;6.878;2023-02-15T06:58:14;209.97;;;85.80;;
15082;SDS011;7640;53.116;6.878;2023-02-15T07:00:43;199.97;;;83.03;;
15082;SDS011;7640;53.116;6.878;2023-02-15T07:03:13;231.07;;;90.17;;
15082;SDS011;7640;53.116;6.878;2023-02-15T07:05:43;234.47;;;91.37;;
15082;SDS011;7640;53.116;6.878;2023-02-15T07:08:13;219.53;;;86.57;;
15082;SDS011;7640;53.116;6.878;2023-02-15T07:10:43;213.23;;;86.07;;
15082;SDS011;7640;53.116;6.878;2023-02-15T07:13:11;235.80;;;92.80;;
15082;SDS011;7640;53.116;6.878;2023-02-15T07:15:39;214.40;;;87.43;;
15082;SDS011;7640;53.116;6.878;2023-02-15T07:18:07;230.57;;;87.93;;
15082;SDS011;7640;53.116;6.878;2023-02-15T07:20:37;224.73;;;93.00;;
15082;SDS011;7640;53.116;6.878;2023-02-15T07:23:09;224.40;;;88.23;;
15082;SDS011;7640;53.116;6.878;2023-02-15T07:25:37;210.70;;;82.90;;
15082;SDS011;7640;53.116;6.878;2023-02-15T07:28:06;199.13;;;82.40;;
15082;SDS011;7640;53.116;6.878;2023-02-15T07:30:35;203.53;;;86.03;;
15082;SDS011;7640;53.116;6.878;2023-02-15T07:33:04;206.33;;;84.50;;
15082;SDS011;7640;53.116;6.878;2023-02-15T07:35:51;202.77;;;82.50;;
15082;SDS011;7640;53.116;6.878;2023-02-15T07:38:25;187.30;;;82.07;;
15082;SDS011;7640;53.116;6.878;2023-02-15T07:40:57;198.07;;;80.03;;
15082;SDS011;7640;53.116;6.878;2023-02-15T07:43:26;209.70;;;85.00;;
15082;SDS011;7640;53.116;6.878;2023-02-15T07:45:58;203.30;;;82.57;;
15082;SDS011;7640;53.116;6.878;2023-02-15T07:48:28;187.90;;;78.37;;
15082;SDS011;7640;53.116;6.878;2023-02-15T07:53:53;209.17;;;84.00;;
15082;SDS011;7640;53.116;6.878;2023-02-15T07:56:21;215.30;;;84.37;;
15082;SDS011;7640;53.116;6.878;2023-02-15T07:58:50;212.93;;;85.87;;
15082;SDS011;7640;53.116;6.878;2023-02-15T08:01:19;225.43;;;89.33;;
15082;SDS011;7640;53.116;6.878;2023-02-15T08:03:49;215.17;;;85.07;;
15082;SDS011;7640;53.116;6.878;2023-02-15T08:06:20;211.13;;;85.13;;
15082;SDS011;7640;53.116;6.878;2023-02-15T08:08:49;197.33;;;82.53;;
15082;SDS011;7640;53.116;6.878;2023-02-15T08:11:20;195.53;;;80.77;;
15082;SDS011;7640;53.116;6.878;2023-02-15T08:13:53;205.57;;;81.77;;
15082;SDS011;7640;53.116;6.878;2023-02-15T08:16:30;182.90;;;78.77;;
15082;SDS011;7640;53.116;6.878;2023-02-15T08:19:02;194.77;;;81.30;;
15082;SDS011;7640;53.116;6.878;2023-02-15T08:21:33;184.80;;;76.63;;
15082;SDS011;7640;53.116;6.878;2023-02-15T08:24:04;185.50;;;78.87;;
15082;SDS011;7640;53.116;6.878;2023-02-15T08:26:36;179.53;;;74.07;;
15082;SDS011;7640;53.116;6.878;2023-02-15T08:29:09;193.53;;;80.67;;
15082;SDS011;7640;53.116;6.878;2023-02-15T08:31:38;181.33;;;77.67;;
15082;SDS011;7640;53.116;6.878;2023-02-15T08:34:08;184.00;;;77.47;;
15082;SDS011;7640;53.116;6.878;2023-02-15T08:36:38;178.23;;;74.57;;
15082;SDS011;7640;53.116;6.878;2023-02-15T08:39:07;166.97;;;74.93;;
15082;SDS011;7640;53.116;6.878;2023-02-15T08:41:38;166.90;;;72.27;;
15082;SDS011;7640;53.116;6.878;2023-02-15T08:44:08;165.87;;;71.93;;
15082;SDS011;7640;53.116;6.878;2023-02-15T08:46:38;168.53;;;73.57;;
15082;SDS011;7640;53.116;6.878;2023-02-15T08:49:09;155.10;;;69.50;;
15082;SDS011;7640;53.116;6.878;2023-02-15T08:51:39;170.53;;;69.10;;
15082;SDS011;7640;53.116;6.878;2023-02-15T08:54:09;163.93;;;67.83;;
15082;SDS011;7640;53.116;6.878;2023-02-15T08:56:42;150.00;;;65.40;;
15082;SDS011;7640;53.116;6.878;2023-02-15T08:59:12;154.87;;;68.00;;
15082;SDS011;7640;53.116;6.878;2023-02-15T09:01:43;142.67;;;66.97;;
15082;SDS011;7640;53.116;6.878;2023-02-15T09:04:13;151.70;;;67.03;;
15082;SDS011;7640;53.116;6.878;2023-02-15T09:06:42;136.53;;;64.33;;
15082;SDS011;7640;53.116;6.878;2023-02-15T09:09:14;145.00;;;67.17;;
15082;SDS011;7640;53.116;6.878;2023-02-15T09:11:45;144.70;;;66.10;;
15082;SDS011;7640;53.116;6.878;2023-02-15T09:14:22;141.90;;;65.80;;
15082;SDS011;7640;53.116;6.878;2023-02-15T09:16:52;140.83;;;66.83;;
15082;SDS011;7640;53.116;6.878;2023-02-15T09:19:22;139.87;;;63.93;;
15082;SDS011;7640;53.116;6.878;2023-02-15T09:21:51;133.80;;;64.17;;
15082;SDS011;7640;53.116;6.878;2023-02-15T09:24:20;127.23;;;62.13;;
15082;SDS011;7640;53.116;6.878;2023-02-15T09:26:50;134.87;;;61.87;;
15082;SDS011;7640;53.116;6.878;2023-02-15T09:29:19;132.63;;;62.43;;
15082;SDS011;7640;53.116;6.878;2023-02-15T09:31:49;125.90;;;59.70;;
15082;SDS011;7640;53.116;6.878;2023-02-15T09:34:20;127.83;;;59.37;;
15082;SDS011;7640;53.116;6.878;2023-02-15T09:36:50;125.00;;;61.97;;
15082;SDS011;7640;53.116;6.878;2023-02-15T09:39:20;133.17;;;60.60;;
15082;SDS011;7640;53.116;6.878;2023-02-15T09:41:56;118.50;;;58.63;;
15082;SDS011;7640;53.116;6.878;2023-02-15T09:45:15;127.30;;;61.70;;
15082;SDS011;7640;53.116;6.878;2023-02-15T09:48:06;128.77;;;57.43;;
15082;SDS011;7640;53.116;6.878;2023-02-15T09:51:15;126.40;;;57.83;;
15082;SDS011;7640;53.116;6.878;2023-02-15T09:54:22;116.57;;;56.23;;
15082;SDS011;7640;53.116;6.878;2023-02-15T09:57:16;121.90;;;57.27;;
15082;SDS011;7640;53.116;6.878;2023-02-15T09:59:58;122.57;;;55.80;;
15082;SDS011;7640;53.116;6.878;2023-02-15T10:02:39;113.87;;;55.03;;
15082;SDS011;7640;53.116;6.878;2023-02-15T10:05:27;113.10;;;53.50;;
15082;SDS011;7640;53.116;6.878;2023-02-15T10:08:18;115.87;;;56.30;;
15082;SDS011;7640;53.116;6.878;2023-02-15T10:11:20;111.43;;;55.63;;
15082;SDS011;7640;53.116;6.878;2023-02-15T10:14:25;112.37;;;55.70;;
15082;SDS011;7640;53.116;6.878;2023-02-15T10:17:21;106.33;;;54.93;;
15082;SDS011;7640;53.116;6.878;2023-02-15T10:20:05;116.73;;;57.70;;
15082;SDS011;7640;53.116;6.878;2023-02-15T10:22:50;113.83;;;56.53;;
15082;SDS011;7640;53.116;6.878;2023-02-15T10:25:43;116.63;;;57.57;;
15082;SDS011;7640;53.116;6.878;2023-02-15T10:28:20;112.87;;;57.80;;
15082;SDS011;7640;53.116;6.878;2023-02-15T10:30:56;114.77;;;57.73;;
15082;SDS011;7640;53.116;6.878;2023-02-15T10:33:38;113.40;;;58.67;;
15082;SDS011;7640;53.116;6.878;2023-02-15T10:36:19;109.23;;;58.47;;
15082;SDS011;7640;53.116;6.878;2023-02-15T10:39:02;110.37;;;54.97;;
15082;SDS011;7640;53.116;6.878;2023-02-15T10:41:37;102.17;;;55.77;;
15082;SDS011;7640;53.116;6.878;2023-02-15T10:44:28;103.83;;;55.47;;
15082;SDS011;7640;53.116;6.878;2023-02-15T10:47:20;103.37;;;53.93;;
15082;SDS011;7640;53.116;6.878;2023-02-15T10:50:13;107.00;;;53.67;;
15082;SDS011;7640;53.116;6.878;2023-02-15T10:53:12;102.20;;;53.87;;
15082;SDS011;7640;53.116;6.878;2023-02-15T10:55:55;91.00;;;50.57;;
15082;SDS011;7640;53.116;6.878;2023-02-15T10:58:38;92.37;;;52.13;;
15082;SDS011;7640;53.116;6.878;2023-02-15T11:01:29;97.27;;;52.00;;
15082;SDS011;7640;53.116;6.878;2023-02-15T11:04:16;90.87;;;50.00;;
15082;SDS011;7640;53.116;6.878;2023-02-15T11:07:08;92.90;;;49.77;;
15082;SDS011;7640;53.116;6.878;2023-02-15T11:09:44;84.57;;;49.53;;
15082;SDS011;7640;53.116;6.878;2023-02-15T11:12:17;89.10;;;50.07;;
15082;SDS011;7640;53.116;6.878;2023-02-15T11:14:52;86.20;;;48.80;;
15082;SDS011;7640;53.116;6.878;2023-02-15T11:17:27;86.97;;;49.33;;
15082;SDS011;7640;53.116;6.878;2023-02-15T11:20:08;83.17;;;48.17;;
15082;SDS011;7640;53.116;6.878;2023-02-15T11:22:47;82.43;;;46.90;;
15082;SDS011;7640;53.116;6.878;2023-02-15T11:25:18;77.40;;;46.60;;
15082;SDS011;7640;53.116;6.878;2023-02-15T11:27:50;83.20;;;47.33;;
15082;SDS011;7640;53.116;6.878;2023-02-15T11:30:22;74.30;;;46.57;;
15082;SDS011;7640;53.116;6.878;2023-02-15T11:32:53;72.80;;;44.80;;
15082;SDS011;7640;53.116;6.878;2023-02-15T11:35:30;79.40;;;46.23;;
15082;SDS011;7640;53.116;6.878;2023-02-15T11:38:06;77.27;;;44.83;;
15082;SDS011;7640;53.116;6.878;2023-02-15T11:40:43;69.07;;;42.60;;
15082;SDS011;7640;53.116;6.878;2023-02-15T11:43:16;71.87;;;43.60;;
15082;SDS011;7640;53.116;6.878;2023-02-15T11:45:51;70.20;;;41.07;;
15082;SDS011;7640;53.116;6.878;2023-02-15T11:48:20;67.13;;;41.10;;
15082;SDS011;7640;53.116;6.878;2023-02-15T11:50:51;62.97;;;41.27;;
15082;SDS011;7640;53.116;6.878;2023-02-15T11:53:20;60.33;;;39.37;;
15082;SDS011;7640;53.116;6.878;2023-02-15T11:55:51;62.27;;;37.53;;
15082;SDS011;7640;53.116;6.878;2023-02-15T11:58:23;62.30;;;37.77;;
15082;SDS011;7640;53.116;6.878;2023-02-15T12:01:00;65.07;;;39.37;;
15082;SDS011;7640;53.116;6.878;2023-02-15T12:03:40;62.93;;;36.73;;
15082;SDS011;7640;53.116;6.878;2023-02-15T12:06:23;56.67;;;36.63;;
15082;SDS011;7640;53.116;6.878;2023-02-15T12:08:57;57.17;;;36.10;;
15082;SDS011;7640;53.116;6.878;2023-02-15T12:11:32;58.73;;;35.07;;
15082;SDS011;7640;53.116;6.878;2023-02-15T12:14:04;52.87;;;35.30;;
15082;SDS011;7640;53.116;6.878;2023-02-15T12:16:40;58.83;;;37.03;;
15082;SDS011;7640;53.116;6.878;2023-02-15T12:19:26;54.63;;;33.60;;
15082;SDS011;7640;53.116;6.878;2023-02-15T12:22:00;56.83;;;34.77;;
15082;SDS011;7640;53.116;6.878;2023-02-15T12:24:34;54.00;;;33.60;;
15082;SDS011;7640;53.116;6.878;2023-02-15T12:27:06;50.33;;;31.73;;
15082;SDS011;7640;53.116;6.878;2023-02-15T12:29:44;53.93;;;33.80;;
15082;SDS011;7640;53.116;6.878;2023-02-15T12:32:17;51.50;;;29.90;;
15082;SDS011;7640;53.116;6.878;2023-02-15T12:34:50;53.73;;;32.33;;
15082;SDS011;7640;53.116;6.878;2023-02-15T12:37:23;48.83;;;31.23;;
15082;SDS011;7640;53.116;6.878;2023-02-15T12:39:58;48.20;;;31.37;;
15082;SDS011;7640;53.116;6.878;2023-02-15T12:42:28;47.63;;;31.97;;
15082;SDS011;7640;53.116;6.878;2023-02-15T12:45:20;50.27;;;31.70;;
15082;SDS011;7640;53.116;6.878;2023-02-15T12:48:08;51.20;;;32.17;;
15082;SDS011;7640;53.116;6.878;2023-02-15T12:50:44;48.57;;;32.40;;
15082;SDS011;7640;53.116;6.878;2023-02-15T12:53:22;54.60;;;32.23;;
15082;SDS011;7640;53.116;6.878;2023-02-15T12:56:04;50.83;;;32.53;;
15082;SDS011;7640;53.116;6.878;2023-02-15T12:58:35;48.53;;;32.70;;
15082;SDS011;7640;53.116;6.878;2023-02-15T13:01:11;49.83;;;33.17;;
15082;SDS011;7640;53.116;6.878;2023-02-15T13:03:53;52.30;;;33.47;;
15082;SDS011;7640;53.116;6.878;2023-02-15T13:06:26;55.40;;;33.43;;
15082;SDS011;7640;53.116;6.878;2023-02-15T13:09:05;49.20;;;33.07;;
15082;SDS011;7640;53.116;6.878;2023-02-15T13:11:41;48.70;;;31.33;;
15082;SDS011;7640;53.116;6.878;2023-02-15T13:14:16;56.07;;;34.47;;
15082;SDS011;7640;53.116;6.878;2023-02-15T13:16:48;52.33;;;33.13;;
15082;SDS011;7640;53.116;6.878;2023-02-15T13:19:21;51.70;;;33.53;;
15082;SDS011;7640;53.116;6.878;2023-02-15T13:22:00;53.50;;;34.33;;
15082;SDS011;7640;53.116;6.878;2023-02-15T13:24:35;54.53;;;35.03;;
15082;SDS011;7640;53.116;6.878;2023-02-15T13:27:07;49.20;;;33.57;;
15082;SDS011;7640;53.116;6.878;2023-02-15T13:29:43;49.37;;;33.73;;
15082;SDS011;7640;53.116;6.878;2023-02-15T13:32:17;48.93;;;32.93;;
15082;SDS011;7640;53.116;6.878;2023-02-15T13:34:54;51.70;;;33.93;;
15082;SDS011;7640;53.116;6.878;2023-02-15T13:37:34;52.00;;;34.00;;
15082;SDS011;7640;53.116;6.878;2023-02-15T13:40:20;50.53;;;32.27;;
15082;SDS011;7640;53.116;6.878;2023-02-15T13:42:54;47.17;;;32.50;;
15082;SDS011;7640;53.116;6.878;2023-02-15T13:45:30;50.27;;;33.00;;
15082;SDS011;7640;53.116;6.878;2023-02-15T13:48:10;47.13;;;31.07;;
15082;SDS011;7640;53.116;6.878;2023-02-15T13:50:51;45.60;;;30.57;;
15082;SDS011;7640;53.116;6.878;2023-02-15T13:53:36;45.17;;;30.57;;
15082;SDS011;7640;53.116;6.878;2023-02-15T13:56:41;43.70;;;30.87;;
15082;SDS011;7640;53.116;6.878;2023-02-15T14:02:25;45.87;;;29.37;;
15082;SDS011;7640;53.116;6.878;2023-02-15T14:05:13;46.10;;;30.40;;
15082;SDS011;7640;53.116;6.878;2023-02-15T14:08:08;47.73;;;30.23;;
15082;SDS011;7640;53.116;6.878;2023-02-15T14:10:46;50.50;;;32.30;;
15082;SDS011;7640;53.116;6.878;2023-02-15T14:16:45;49.23;;;32.30;;
15082;SDS011;7640;53.116;6.878;2023-02-15T14:19:33;50.60;;;34.03;;
15082;SDS011;7640;53.116;6.878;2023-02-15T14:22:10;48.43;;;33.70;;
15082;SDS011;7640;53.116;6.878;2023-02-15T14:24:51;52.67;;;33.97;;
15082;SDS011;7640;53.116;6.878;2023-02-15T14:27:40;50.97;;;32.53;;
15082;SDS011;7640;53.116;6.878;2023-02-15T14:30:23;49.70;;;33.80;;
15082;SDS011;7640;53.116;6.878;2023-02-15T14:32:55;47.43;;;31.60;;
15082;SDS011;7640;53.116;6.878;2023-02-15T14:35:29;45.93;;;32.13;;
15082;SDS011;7640;53.116;6.878;2023-02-15T14:38:02;46.57;;;31.17;;
15082;SDS011;7640;53.116;6.878;2023-02-15T14:40:41;48.83;;;30.50;;
15082;SDS011;7640;53.116;6.878;2023-02-15T14:43:34;43.60;;;28.23;;
15082;SDS011;7640;53.116;6.878;2023-02-15T14:46:20;43.07;;;29.87;;
15082;SDS011;7640;53.116;6.878;2023-02-15T14:49:03;45.00;;;29.50;;
15082;SDS011;7640;53.116;6.878;2023-02-15T14:51:57;45.70;;;29.17;;
15082;SDS011;7640;53.116;6.878;2023-02-15T14:57:28;43.17;;;28.97;;
15082;SDS011;7640;53.116;6.878;2023-02-15T15:03:18;45.90;;;29.80;;
15082;SDS011;7640;53.116;6.878;2023-02-15T15:05:51;46.37;;;29.20;;
15082;SDS011;7640;53.116;6.878;2023-02-15T15:08:27;47.43;;;30.77;;
15082;SDS011;7640;53.116;6.878;2023-02-15T15:14:10;44.73;;;28.30;;
15082;SDS011;7640;53.116;6.878;2023-02-15T15:17:04;44.97;;;28.93;;
15082;SDS011;7640;53.116;6.878;2023-02-15T15:22:41;43.93;;;28.33;;
15082;SDS011;7640;53.116;6.878;2023-02-15T15:25:12;42.53;;;27.50;;
15082;SDS011;7640;53.116;6.878;2023-02-15T15:28:24;43.67;;;29.03;;
15082;SDS011;7640;53.116;6.878;2023-02-15T15:31:43;46.23;;;28.97;;
15082;SDS011;7640;53.116;6.878;2023-02-15T15:37:40;41.90;;;28.60;;
15082;SDS011;7640;53.116;6.878;2023-02-15T15:41:03;43.43;;;28.33;;
15082;SDS011;7640;53.116;6.878;2023-02-15T15:44:06;40.33;;;27.77;;
15082;SDS011;7640;53.116;6.878;2023-02-15T15:47:13;46.43;;;27.03;;